sensor_id;sensor_type;location;lat;lon;timestamp;pressure;altitude;pressure_sealevel;temperature;humidity
75543;BME280;64129;53.508;10.476;2024-02-23T00:01:59;97572.34;;;9.36;69.29
75543;BME280;64129;53.508;10.476;2024-02-23T00:04:50;97554.38;;;9.30;69.99
75543;BME280;64129;53.508;10.476;2024-02-23T00:07:17;97555.13;;;9.32;68.76
75543;BME280;64129;53.508;10.476;2024-02-23T00:09:44;97568.19;;;9.32;68.05
75543;BME280;64129;53.508;10.476;2024-02-23T00:12:14;97573.75;;;9.26;67.95
75543;BME280;64129;53.508;10.476;2024-02-23T00:14:44;97581.94;;;9.19;73.30
75543;BME280;64129;53.508;10.476;2024-02-23T00:17:24;97604.03;;;9.14;68.13
75543;BME280;64129;53.508;10.476;2024-02-23T00:19:54;97637.56;;;9.06;67.44
75543;BME280;64129;53.508;10.476;2024-02-23T00:22:21;97606.53;;;8.98;66.90
75543;BME280;64129;53.508;10.476;2024-02-23T00:24:52;97647.03;;;8.89;66.01
75543;BME280;64129;53.508;10.476;2024-02-23T00:27:21;97629.88;;;8.84;68.07
75543;BME280;64129;53.508;10.476;2024-02-23T00:30:01;97657.31;;;8.75;67.79
75543;BME280;64129;53.508;10.476;2024-02-23T00:32:35;97611.41;;;8.69;64.92
75543;BME280;64129;53.508;10.476;2024-02-23T00:35:07;97644.25;;;8.56;66.73
75543;BME280;64129;53.508;10.476;2024-02-23T00:37:35;97636.56;;;8.53;66.02
75543;BME280;64129;53.508;10.476;2024-02-23T00:40:18;97616.09;;;8.44;67.32
75543;BME280;64129;53.508;10.476;2024-02-23T00:42:51;97627.41;;;8.45;66.33
75543;BME280;64129;53.508;10.476;2024-02-23T00:45:20;97628.50;;;8.39;67.10
75543;BME280;64129;53.508;10.476;2024-02-23T00:47:48;97629.31;;;8.41;65.93
75543;BME280;64129;53.508;10.476;2024-02-23T00:50:19;97626.69;;;8.41;69.23
75543;BME280;64129;53.508;10.476;2024-02-23T00:52:46;97639.75;;;8.41;66.42
75543;BME280;64129;53.508;10.476;2024-02-23T00:55:13;97638.28;;;8.34;66.79
75543;BME280;64129;53.508;10.476;2024-02-23T00:57:55;97649.59;;;8.34;67.59
75543;BME280;64129;53.508;10.476;2024-02-23T01:00:40;97643.53;;;8.34;67.41
75543;BME280;64129;53.508;10.476;2024-02-23T01:03:22;97646.94;;;8.36;68.13
75543;BME280;64129;53.508;10.476;2024-02-23T01:05:49;97671.50;;;8.32;67.72
75543;BME280;64129;53.508;10.476;2024-02-23T01:08:26;97695.97;;;8.29;68.18
75543;BME280;64129;53.508;10.476;2024-02-23T01:10:56;97676.00;;;8.28;68.82
75543;BME280;64129;53.508;10.476;2024-02-23T01:13:45;97683.06;;;8.26;69.98
75543;BME280;64129;53.508;10.476;2024-02-23T01:16:27;97691.88;;;8.24;69.99
75543;BME280;64129;53.508;10.476;2024-02-23T01:19:04;97705.75;;;8.26;67.94
75543;BME280;64129;53.508;10.476;2024-02-23T01:21:47;97712.16;;;8.18;71.64
75543;BME280;64129;53.508;10.476;2024-02-23T01:24:29;97724.75;;;8.09;71.22
75543;BME280;64129;53.508;10.476;2024-02-23T01:26:57;97768.06;;;8.14;71.81
75543;BME280;64129;53.508;10.476;2024-02-23T01:29:32;97750.88;;;8.09;70.76
75543;BME280;64129;53.508;10.476;2024-02-23T01:32:05;97764.72;;;8.11;73.72
75543;BME280;64129;53.508;10.476;2024-02-23T01:34:34;97755.44;;;7.41;81.46
75543;BME280;64129;53.508;10.476;2024-02-23T01:37:07;97825.75;;;7.00;83.19
75543;BME280;64129;53.508;10.476;2024-02-23T01:39:35;97826.94;;;6.67;84.75
75543;BME280;64129;53.508;10.476;2024-02-23T01:42:02;97818.69;;;6.55;84.79
75543;BME280;64129;53.508;10.476;2024-02-23T01:44:35;97843.81;;;6.56;84.30
75543;BME280;64129;53.508;10.476;2024-02-23T01:47:05;97828.34;;;6.52;84.19
75543;BME280;64129;53.508;10.476;2024-02-23T01:49:39;97844.31;;;6.43;84.12
75543;BME280;64129;53.508;10.476;2024-02-23T01:52:25;97867.66;;;6.21;84.68
75543;BME280;64129;53.508;10.476;2024-02-23T01:54:53;97870.91;;;6.27;84.70
75543;BME280;64129;53.508;10.476;2024-02-23T01:57:38;97891.81;;;6.24;85.44
75543;BME280;64129;53.508;10.476;2024-02-23T02:00:24;97897.25;;;6.18;84.33
75543;BME280;64129;53.508;10.476;2024-02-23T02:02:54;97896.78;;;6.32;85.18
75543;BME280;64129;53.508;10.476;2024-02-23T02:05:21;97923.38;;;6.15;84.80
75543;BME280;64129;53.508;10.476;2024-02-23T02:08:07;97930.56;;;6.08;84.72
75543;BME280;64129;53.508;10.476;2024-02-23T02:10:48;97936.47;;;6.13;84.72
75543;BME280;64129;53.508;10.476;2024-02-23T02:13:18;97936.00;;;6.01;85.05
75543;BME280;64129;53.508;10.476;2024-02-23T02:16:02;97941.19;;;6.01;84.40
75543;BME280;64129;53.508;10.476;2024-02-23T02:18:35;97952.28;;;6.07;84.32
75543;BME280;64129;53.508;10.476;2024-02-23T02:21:04;97958.53;;;6.02;84.03
75543;BME280;64129;53.508;10.476;2024-02-23T02:23:31;97966.06;;;6.11;84.29
75543;BME280;64129;53.508;10.476;2024-02-23T02:26:02;97971.44;;;6.05;83.75
75543;BME280;64129;53.508;10.476;2024-02-23T02:28:58;97992.34;;;6.03;83.11
75543;BME280;64129;53.508;10.476;2024-02-23T02:31:39;97995.00;;;6.02;83.53
75543;BME280;64129;53.508;10.476;2024-02-23T02:34:07;98015.22;;;5.92;82.78
75543;BME280;64129;53.508;10.476;2024-02-23T02:36:40;98010.00;;;5.92;82.64
75543;BME280;64129;53.508;10.476;2024-02-23T02:39:07;98012.47;;;5.97;83.08
75543;BME280;64129;53.508;10.476;2024-02-23T02:41:49;98032.50;;;5.95;83.20
75543;BME280;64129;53.508;10.476;2024-02-23T02:44:17;98028.84;;;6.02;83.32
75543;BME280;64129;53.508;10.476;2024-02-23T02:46:52;98043.88;;;5.91;81.73
75543;BME280;64129;53.508;10.476;2024-02-23T02:49:19;98062.91;;;5.94;81.80
75543;BME280;64129;53.508;10.476;2024-02-23T02:51:53;98076.69;;;5.98;83.71
75543;BME280;64129;53.508;10.476;2024-02-23T02:54:23;98086.38;;;5.91;84.41
75543;BME280;64129;53.508;10.476;2024-02-23T02:56:54;98107.19;;;5.91;83.94
75543;BME280;64129;53.508;10.476;2024-02-23T02:59:24;98122.22;;;5.83;84.75
75543;BME280;64129;53.508;10.476;2024-02-23T03:01:57;98098.16;;;5.73;83.22
75543;BME280;64129;53.508;10.476;2024-02-23T03:04:30;98138.44;;;5.60;83.58
75543;BME280;64129;53.508;10.476;2024-02-23T03:06:57;98120.72;;;5.73;84.42
75543;BME280;64129;53.508;10.476;2024-02-23T03:09:37;98140.28;;;5.56;84.29
75543;BME280;64129;53.508;10.476;2024-02-23T03:12:07;98139.72;;;5.44;84.40
75543;BME280;64129;53.508;10.476;2024-02-23T03:14:34;98158.78;;;5.44;86.18
75543;BME280;64129;53.508;10.476;2024-02-23T03:17:10;98157.31;;;5.34;84.89
75543;BME280;64129;53.508;10.476;2024-02-23T03:19:37;98170.16;;;5.40;84.43
75543;BME280;64129;53.508;10.476;2024-02-23T03:22:09;98187.88;;;5.26;85.26
75543;BME280;64129;53.508;10.476;2024-02-23T03:24:39;98200.97;;;5.23;85.86
75543;BME280;64129;53.508;10.476;2024-02-23T03:27:07;98187.97;;;5.23;86.17
75543;BME280;64129;53.508;10.476;2024-02-23T03:29:41;98202.94;;;5.13;86.15
75543;BME280;64129;53.508;10.476;2024-02-23T03:32:23;98195.88;;;5.17;85.98
75543;BME280;64129;53.508;10.476;2024-02-23T03:35:00;98199.44;;;5.14;86.49
75543;BME280;64129;53.508;10.476;2024-02-23T03:37:28;98216.47;;;5.26;85.75
75543;BME280;64129;53.508;10.476;2024-02-23T03:39:56;98228.00;;;5.16;86.06
75543;BME280;64129;53.508;10.476;2024-02-23T03:42:31;98239.13;;;5.21;86.22
75543;BME280;64129;53.508;10.476;2024-02-23T03:45:01;98233.50;;;5.02;86.87
75543;BME280;64129;53.508;10.476;2024-02-23T03:47:36;98241.63;;;4.88;87.59
75543;BME280;64129;53.508;10.476;2024-02-23T03:50:04;98249.41;;;4.88;87.27
75543;BME280;64129;53.508;10.476;2024-02-23T03:52:33;98266.06;;;4.81;86.26
75543;BME280;64129;53.508;10.476;2024-02-23T03:55:04;98277.31;;;4.80;86.53
75543;BME280;64129;53.508;10.476;2024-02-23T03:57:34;98259.84;;;4.86;87.21
75543;BME280;64129;53.508;10.476;2024-02-23T04:00:02;98268.66;;;4.81;86.79
75543;BME280;64129;53.508;10.476;2024-02-23T04:02:43;98274.03;;;4.72;86.91
75543;BME280;64129;53.508;10.476;2024-02-23T04:05:12;98288.88;;;4.65;86.34
75543;BME280;64129;53.508;10.476;2024-02-23T04:07:50;98290.47;;;4.72;86.28
75543;BME280;64129;53.508;10.476;2024-02-23T04:10:30;98279.19;;;4.73;87.58
75543;BME280;64129;53.508;10.476;2024-02-23T04:13:01;98301.19;;;4.57;87.00
75543;BME280;64129;53.508;10.476;2024-02-23T04:15:31;98308.78;;;4.66;86.77
75543;BME280;64129;53.508;10.476;2024-02-23T04:18:06;98305.69;;;4.49;86.16
75543;BME280;64129;53.508;10.476;2024-02-23T04:20:33;98322.97;;;4.50;87.11
75543;BME280;64129;53.508;10.476;2024-02-23T04:23:00;98315.19;;;4.50;85.71
75543;BME280;64129;53.508;10.476;2024-02-23T04:25:34;98319.56;;;4.46;84.50
75543;BME280;64129;53.508;10.476;2024-02-23T04:28:01;98328.25;;;4.45;85.31
75543;BME280;64129;53.508;10.476;2024-02-23T04:30:35;98341.38;;;4.39;84.85
75543;BME280;64129;53.508;10.476;2024-02-23T04:33:04;98342.13;;;4.43;85.24
75543;BME280;64129;53.508;10.476;2024-02-23T04:35:49;98345.75;;;4.35;84.91
75543;BME280;64129;53.508;10.476;2024-02-23T04:38:18;98353.41;;;4.43;85.17
75543;BME280;64129;53.508;10.476;2024-02-23T04:40:57;98350.94;;;4.35;85.20
75543;BME280;64129;53.508;10.476;2024-02-23T04:43:26;98350.81;;;4.42;84.71
75543;BME280;64129;53.508;10.476;2024-02-23T04:45:54;98350.59;;;4.54;85.43
75543;BME280;64129;53.508;10.476;2024-02-23T04:48:21;98367.16;;;4.48;84.19
75543;BME280;64129;53.508;10.476;2024-02-23T04:50:51;98352.22;;;4.59;84.75
75543;BME280;64129;53.508;10.476;2024-02-23T04:53:30;98359.16;;;4.59;83.86
75543;BME280;64129;53.508;10.476;2024-02-23T04:56:03;98368.59;;;4.63;83.85
75543;BME280;64129;53.508;10.476;2024-02-23T04:58:35;98375.47;;;4.66;83.42
75543;BME280;64129;53.508;10.476;2024-02-23T05:01:28;98386.81;;;4.61;83.12
75543;BME280;64129;53.508;10.476;2024-02-23T05:04:05;98385.84;;;4.66;82.91
75543;BME280;64129;53.508;10.476;2024-02-23T05:06:33;98385.91;;;4.64;83.02
75543;BME280;64129;53.508;10.476;2024-02-23T05:09:16;98398.94;;;4.61;82.61
75543;BME280;64129;53.508;10.476;2024-02-23T05:11:52;98391.09;;;4.64;83.24
75543;BME280;64129;53.508;10.476;2024-02-23T05:14:22;98402.44;;;4.60;82.26
75543;BME280;64129;53.508;10.476;2024-02-23T05:16:48;98410.22;;;4.60;82.81
75543;BME280;64129;53.508;10.476;2024-02-23T05:19:19;98402.34;;;4.65;83.33
75543;BME280;64129;53.508;10.476;2024-02-23T05:21:58;98412.78;;;4.63;82.08
75543;BME280;64129;53.508;10.476;2024-02-23T05:24:30;98408.38;;;4.67;82.97
75543;BME280;64129;53.508;10.476;2024-02-23T05:27:02;98422.22;;;4.66;83.26
75543;BME280;64129;53.508;10.476;2024-02-23T05:29:30;98439.66;;;4.60;82.39
75543;BME280;64129;53.508;10.476;2024-02-23T05:31:59;98420.53;;;4.65;82.29
75543;BME280;64129;53.508;10.476;2024-02-23T05:34:31;98431.94;;;4.57;81.49
75543;BME280;64129;53.508;10.476;2024-02-23T05:37:02;98428.56;;;4.51;82.26
75543;BME280;64129;53.508;10.476;2024-02-23T05:39:36;98435.47;;;4.52;82.28
75543;BME280;64129;53.508;10.476;2024-02-23T05:42:17;98437.28;;;4.48;80.96
75543;BME280;64129;53.508;10.476;2024-02-23T05:44:49;98445.91;;;4.50;82.15
75543;BME280;64129;53.508;10.476;2024-02-23T05:47:16;98442.44;;;4.50;81.08
75543;BME280;64129;53.508;10.476;2024-02-23T05:49:52;98468.25;;;4.59;80.28
75543;BME280;64129;53.508;10.476;2024-02-23T05:52:20;98485.63;;;4.57;80.90
75543;BME280;64129;53.508;10.476;2024-02-23T05:55:01;98472.56;;;4.60;80.40
75543;BME280;64129;53.508;10.476;2024-02-23T05:57:37;98481.13;;;4.67;80.00
75543;BME280;64129;53.508;10.476;2024-02-23T06:00:18;98498.34;;;4.71;81.08
75543;BME280;64129;53.508;10.476;2024-02-23T06:03:26;98503.50;;;4.74;80.80
75543;BME280;64129;53.508;10.476;2024-02-23T06:05:57;98499.41;;;4.62;80.11
75543;BME280;64129;53.508;10.476;2024-02-23T06:08:47;98500.25;;;4.63;80.37
75543;BME280;64129;53.508;10.476;2024-02-23T06:11:16;98494.97;;;4.67;80.05
75543;BME280;64129;53.508;10.476;2024-02-23T06:13:43;98509.72;;;4.65;81.51
75543;BME280;64129;53.508;10.476;2024-02-23T06:16:16;98522.69;;;4.67;80.44
75543;BME280;64129;53.508;10.476;2024-02-23T06:18:45;98527.00;;;4.66;80.27
75543;BME280;64129;53.508;10.476;2024-02-23T06:21:22;98533.09;;;4.67;80.90
75543;BME280;64129;53.508;10.476;2024-02-23T06:23:59;98543.53;;;4.64;80.13
75543;BME280;64129;53.508;10.476;2024-02-23T06:26:27;98552.22;;;4.61;79.53
75543;BME280;64129;53.508;10.476;2024-02-23T06:28:54;98542.66;;;4.63;80.44
75543;BME280;64129;53.508;10.476;2024-02-23T06:31:25;98546.94;;;4.66;81.67
75543;BME280;64129;53.508;10.476;2024-02-23T06:33:57;98560.97;;;4.57;80.69
75543;BME280;64129;53.508;10.476;2024-02-23T06:36:26;98559.19;;;4.59;80.65
75543;BME280;64129;53.508;10.476;2024-02-23T06:38:56;98566.09;;;4.60;81.22
75543;BME280;64129;53.508;10.476;2024-02-23T06:41:31;98569.53;;;4.60;80.93
75543;BME280;64129;53.508;10.476;2024-02-23T06:44:15;98571.28;;;4.60;81.50
75543;BME280;64129;53.508;10.476;2024-02-23T06:46:42;98578.22;;;4.59;82.36
75543;BME280;64129;53.508;10.476;2024-02-23T06:49:19;98584.41;;;4.52;81.41
75543;BME280;64129;53.508;10.476;2024-02-23T06:51:53;98582.59;;;4.56;81.83
75543;BME280;64129;53.508;10.476;2024-02-23T06:54:44;98587.84;;;4.54;81.86
75543;BME280;64129;53.508;10.476;2024-02-23T06:57:36;98595.78;;;4.45;81.56
75543;BME280;64129;53.508;10.476;2024-02-23T07:00:25;98600.94;;;4.47;81.47
75543;BME280;64129;53.508;10.476;2024-02-23T07:03:05;98611.25;;;4.51;81.32
75543;BME280;64129;53.508;10.476;2024-02-23T07:05:39;98609.56;;;4.49;81.66
75543;BME280;64129;53.508;10.476;2024-02-23T07:08:06;98612.94;;;4.57;82.21
75543;BME280;64129;53.508;10.476;2024-02-23T07:10:46;98622.56;;;4.49;82.41
75543;BME280;64129;53.508;10.476;2024-02-23T07:13:22;98627.72;;;4.50;81.88
75543;BME280;64129;53.508;10.476;2024-02-23T07:15:55;98623.22;;;4.63;82.86
75543;BME280;64129;53.508;10.476;2024-02-23T07:18:25;98633.75;;;4.54;81.53
75543;BME280;64129;53.508;10.476;2024-02-23T07:20:58;98643.22;;;4.56;81.25
75543;BME280;64129;53.508;10.476;2024-02-23T07:23:42;98638.84;;;4.60;81.58
75543;BME280;64129;53.508;10.476;2024-02-23T07:26:11;98651.84;;;4.58;81.45
75543;BME280;64129;53.508;10.476;2024-02-23T07:28:38;98651.78;;;4.61;80.91
75543;BME280;64129;53.508;10.476;2024-02-23T07:31:19;98662.91;;;4.73;80.53
75543;BME280;64129;53.508;10.476;2024-02-23T07:33:46;98661.13;;;4.75;80.70
75543;BME280;64129;53.508;10.476;2024-02-23T07:36:23;98676.59;;;4.84;79.28
75543;BME280;64129;53.508;10.476;2024-02-23T07:38:58;98676.31;;;5.02;79.99
75543;BME280;64129;53.508;10.476;2024-02-23T07:41:50;98677.72;;;5.22;79.66
75543;BME280;64129;53.508;10.476;2024-02-23T07:44:17;98674.19;;;5.26;79.84
75543;BME280;64129;53.508;10.476;2024-02-23T07:46:47;98681.00;;;5.31;79.18
75543;BME280;64129;53.508;10.476;2024-02-23T07:49:44;98693.25;;;5.28;78.46
75543;BME280;64129;53.508;10.476;2024-02-23T07:52:11;98683.84;;;5.19;77.96
75543;BME280;64129;53.508;10.476;2024-02-23T07:54:41;98696.69;;;5.27;78.58
75543;BME280;64129;53.508;10.476;2024-02-23T07:57:15;98701.13;;;5.23;77.60
75543;BME280;64129;53.508;10.476;2024-02-23T07:59:50;98694.28;;;5.16;77.53
75543;BME280;64129;53.508;10.476;2024-02-23T08:02:40;98696.69;;;5.28;79.50
75543;BME280;64129;53.508;10.476;2024-02-23T08:05:27;98720.25;;;5.19;77.38
75543;BME280;64129;53.508;10.476;2024-02-23T08:07:57;98701.31;;;5.11;77.77
75543;BME280;64129;53.508;10.476;2024-02-23T08:10:24;98707.09;;;5.28;79.09
75543;BME280;64129;53.508;10.476;2024-02-23T08:12:58;98699.53;;;5.66;78.12
75543;BME280;64129;53.508;10.476;2024-02-23T08:15:26;98706.91;;;5.39;77.25
75543;BME280;64129;53.508;10.476;2024-02-23T08:17:57;98706.78;;;5.45;77.48
75543;BME280;64129;53.508;10.476;2024-02-23T08:20:30;98726.81;;;5.42;75.78
75543;BME280;64129;53.508;10.476;2024-02-23T08:23:10;98711.00;;;5.54;76.50
75543;BME280;64129;53.508;10.476;2024-02-23T08:25:47;98716.19;;;5.55;75.12
75543;BME280;64129;53.508;10.476;2024-02-23T08:31:20;98712.38;;;5.73;77.38
75543;BME280;64129;53.508;10.476;2024-02-23T08:33:47;98719.50;;;5.63;75.36
75543;BME280;64129;53.508;10.476;2024-02-23T08:36:31;98718.03;;;5.98;74.08
75543;BME280;64129;53.508;10.476;2024-02-23T08:39:07;98729.00;;;6.14;74.14
75543;BME280;64129;53.508;10.476;2024-02-23T08:41:41;98725.44;;;6.18;72.59
75543;BME280;64129;53.508;10.476;2024-02-23T08:44:08;98740.28;;;6.14;71.54
75543;BME280;64129;53.508;10.476;2024-02-23T08:46:35;98715.75;;;6.25;69.21
75543;BME280;64129;53.508;10.476;2024-02-23T08:49:14;98734.41;;;6.48;71.01
75543;BME280;64129;53.508;10.476;2024-02-23T08:51:41;98724.00;;;6.48;71.54
75543;BME280;64129;53.508;10.476;2024-02-23T08:54:23;98738.69;;;6.51;68.65
75543;BME280;64129;53.508;10.476;2024-02-23T08:56:52;98735.88;;;6.60;68.99
75543;BME280;64129;53.508;10.476;2024-02-23T08:59:28;98747.50;;;6.45;69.93
75543;BME280;64129;53.508;10.476;2024-02-23T09:01:55;98749.78;;;6.60;72.15
75543;BME280;64129;53.508;10.476;2024-02-23T09:04:25;98743.84;;;6.52;70.91
75543;BME280;64129;53.508;10.476;2024-02-23T09:06:57;98776.94;;;6.50;68.40
75543;BME280;64129;53.508;10.476;2024-02-23T09:09:26;98763.31;;;7.16;70.58
75543;BME280;64129;53.508;10.476;2024-02-23T09:12:02;98785.19;;;6.71;69.01
75543;BME280;64129;53.508;10.476;2024-02-23T09:14:40;98783.47;;;6.70;69.41
75543;BME280;64129;53.508;10.476;2024-02-23T09:21:33;98797.69;;;6.97;70.68
75543;BME280;64129;53.508;10.476;2024-02-23T09:24:10;98785.00;;;6.80;70.35
75543;BME280;64129;53.508;10.476;2024-02-23T09:26:37;98785.78;;;6.83;69.65
75543;BME280;64129;53.508;10.476;2024-02-23T09:29:08;98787.53;;;7.23;67.76
75543;BME280;64129;53.508;10.476;2024-02-23T09:31:38;98787.44;;;7.28;70.36
75543;BME280;64129;53.508;10.476;2024-02-23T09:34:05;98811.53;;;6.99;66.38
75543;BME280;64129;53.508;10.476;2024-02-23T09:36:32;98791.78;;;7.63;65.55
75543;BME280;64129;53.508;10.476;2024-02-23T09:39:12;98814.53;;;7.21;65.50
75543;BME280;64129;53.508;10.476;2024-02-23T09:41:42;98822.59;;;7.10;67.48
75543;BME280;64129;53.508;10.476;2024-02-23T09:44:34;98821.66;;;7.12;68.55
75543;BME280;64129;53.508;10.476;2024-02-23T09:47:08;98833.56;;;6.84;65.81
75543;BME280;64129;53.508;10.476;2024-02-23T09:49:40;98828.72;;;7.07;66.62
75543;BME280;64129;53.508;10.476;2024-02-23T09:52:08;98830.75;;;6.95;65.16
75543;BME280;64129;53.508;10.476;2024-02-23T09:54:38;98834.75;;;7.11;68.08
75543;BME280;64129;53.508;10.476;2024-02-23T09:57:14;98832.94;;;7.14;65.66
75543;BME280;64129;53.508;10.476;2024-02-23T09:59:44;98829.59;;;7.84;65.35
75543;BME280;64129;53.508;10.476;2024-02-23T10:02:15;98830.91;;;8.00;62.45
75543;BME280;64129;53.508;10.476;2024-02-23T10:04:45;98841.19;;;8.08;66.56
75543;BME280;64129;53.508;10.476;2024-02-23T10:07:27;98844.66;;;8.08;62.97
75543;BME280;64129;53.508;10.476;2024-02-23T10:09:56;98859.22;;;8.17;63.28
75543;BME280;64129;53.508;10.476;2024-02-23T10:12:22;98842.09;;;8.05;63.48
75543;BME280;64129;53.508;10.476;2024-02-23T10:14:49;98859.25;;;8.15;66.09
75543;BME280;64129;53.508;10.476;2024-02-23T10:17:21;98864.09;;;7.97;64.00
75543;BME280;64129;53.508;10.476;2024-02-23T10:19:48;98879.22;;;7.84;62.91
75543;BME280;64129;53.508;10.476;2024-02-23T10:22:21;98877.69;;;7.75;63.22
75543;BME280;64129;53.508;10.476;2024-02-23T10:25:07;98873.72;;;7.95;59.01
75543;BME280;64129;53.508;10.476;2024-02-23T10:27:35;98878.25;;;8.89;57.29
75543;BME280;64129;53.508;10.476;2024-02-23T10:30:12;98874.97;;;8.81;55.57
75543;BME280;64129;53.508;10.476;2024-02-23T10:32:43;98898.19;;;8.93;56.41
75543;BME280;64129;53.508;10.476;2024-02-23T10:35:15;98878.13;;;8.93;58.65
75543;BME280;64129;53.508;10.476;2024-02-23T10:37:49;98884.25;;;9.22;54.07
75543;BME280;64129;53.508;10.476;2024-02-23T10:40:29;98904.72;;;8.78;55.48
75543;BME280;64129;53.508;10.476;2024-02-23T10:43:12;98891.41;;;8.19;56.72
75543;BME280;64129;53.508;10.476;2024-02-23T10:46:06;98897.66;;;9.11;54.83
75543;BME280;64129;53.508;10.476;2024-02-23T10:48:36;98895.25;;;9.91;54.37
75543;BME280;64129;53.508;10.476;2024-02-23T10:51:13;98907.25;;;9.42;54.81
75543;BME280;64129;53.508;10.476;2024-02-23T10:53:45;98896.81;;;9.68;57.31
75543;BME280;64129;53.508;10.476;2024-02-23T10:56:15;98907.50;;;8.72;57.37
75543;BME280;64129;53.508;10.476;2024-02-23T10:58:42;98908.66;;;9.24;59.15
75543;BME280;64129;53.508;10.476;2024-02-23T11:01:10;98919.78;;;9.01;60.53
75543;BME280;64129;53.508;10.476;2024-02-23T11:03:41;98928.91;;;8.54;56.59
75543;BME280;64129;53.508;10.476;2024-02-23T11:06:19;98926.47;;;8.46;58.28
75543;BME280;64129;53.508;10.476;2024-02-23T11:08:49;98916.44;;;8.63;58.88
75543;BME280;64129;53.508;10.476;2024-02-23T11:11:21;98922.75;;;8.19;59.57
75543;BME280;64129;53.508;10.476;2024-02-23T11:13:48;98930.81;;;8.47;58.43
75543;BME280;64129;53.508;10.476;2024-02-23T11:16:22;98917.72;;;8.49;60.29
75543;BME280;64129;53.508;10.476;2024-02-23T11:19:07;98924.13;;;8.34;57.93
75543;BME280;64129;53.508;10.476;2024-02-23T11:21:36;98921.59;;;8.31;58.61
75543;BME280;64129;53.508;10.476;2024-02-23T11:24:05;98922.69;;;8.22;57.66
75543;BME280;64129;53.508;10.476;2024-02-23T11:26:47;98923.81;;;8.48;60.72
75543;BME280;64129;53.508;10.476;2024-02-23T11:29:29;98923.78;;;8.49;58.08
75543;BME280;64129;53.508;10.476;2024-02-23T11:32:02;98921.81;;;8.90;59.00
75543;BME280;64129;53.508;10.476;2024-02-23T11:34:35;98915.94;;;8.49;59.99
75543;BME280;64129;53.508;10.476;2024-02-23T11:37:09;98910.84;;;8.77;57.49
75543;BME280;64129;53.508;10.476;2024-02-23T11:39:39;98917.06;;;8.72;61.25
75543;BME280;64129;53.508;10.476;2024-02-23T11:42:13;98912.44;;;8.50;60.48
75543;BME280;64129;53.508;10.476;2024-02-23T11:44:42;98911.88;;;9.32;57.20
75543;BME280;64129;53.508;10.476;2024-02-23T11:47:11;98914.53;;;9.01;56.48
75543;BME280;64129;53.508;10.476;2024-02-23T11:49:38;98912.47;;;8.81;57.26
75543;BME280;64129;53.508;10.476;2024-02-23T11:52:13;98910.47;;;8.91;57.71
75543;BME280;64129;53.508;10.476;2024-02-23T11:54:42;98903.63;;;9.46;61.69
75543;BME280;64129;53.508;10.476;2024-02-23T11:57:09;98901.69;;;9.23;59.05
75543;BME280;64129;53.508;10.476;2024-02-23T11:59:37;98892.66;;;10.44;53.54
75543;BME280;64129;53.508;10.476;2024-02-23T12:02:12;98889.41;;;9.55;55.37
75543;BME280;64129;53.508;10.476;2024-02-23T12:04:55;98896.69;;;8.84;56.77
75543;BME280;64129;53.508;10.476;2024-02-23T12:07:31;98898.66;;;9.07;55.42
75543;BME280;64129;53.508;10.476;2024-02-23T12:10:06;98909.84;;;9.12;55.85
75543;BME280;64129;53.508;10.476;2024-02-23T12:12:33;98916.44;;;9.26;57.33
75543;BME280;64129;53.508;10.476;2024-02-23T12:15:00;98909.22;;;9.63;62.18
75543;BME280;64129;53.508;10.476;2024-02-23T12:17:27;98922.47;;;9.29;59.16
75543;BME280;64129;53.508;10.476;2024-02-23T12:19:59;98921.31;;;9.08;56.65
75543;BME280;64129;53.508;10.476;2024-02-23T12:22:34;98920.16;;;9.48;53.89
75543;BME280;64129;53.508;10.476;2024-02-23T12:25:08;98903.00;;;9.38;56.19
75543;BME280;64129;53.508;10.476;2024-02-23T12:27:44;98923.19;;;9.03;56.17
75543;BME280;64129;53.508;10.476;2024-02-23T12:30:22;98931.00;;;8.74;53.96
75543;BME280;64129;53.508;10.476;2024-02-23T12:33:06;98933.91;;;9.25;56.07
75543;BME280;64129;53.508;10.476;2024-02-23T12:35:40;98928.28;;;9.39;61.38
75543;BME280;64129;53.508;10.476;2024-02-23T12:38:18;98933.19;;;8.89;57.68
75543;BME280;64129;53.508;10.476;2024-02-23T12:41:11;98946.00;;;8.98;57.19
75543;BME280;64129;53.508;10.476;2024-02-23T12:43:41;98952.56;;;9.14;55.52
75543;BME280;64129;53.508;10.476;2024-02-23T12:46:08;98946.59;;;8.77;56.85
75543;BME280;64129;53.508;10.476;2024-02-23T12:48:37;98933.44;;;8.80;55.17
75543;BME280;64129;53.508;10.476;2024-02-23T12:51:04;98941.31;;;8.46;55.29
75543;BME280;64129;53.508;10.476;2024-02-23T12:53:39;98938.41;;;8.89;54.76
75543;BME280;64129;53.508;10.476;2024-02-23T12:56:17;98928.59;;;9.86;49.30
75543;BME280;64129;53.508;10.476;2024-02-23T12:58:48;98934.25;;;9.44;48.93
75543;BME280;64129;53.508;10.476;2024-02-23T13:01:18;98928.28;;;11.01;46.73
75543;BME280;64129;53.508;10.476;2024-02-23T13:03:46;98936.97;;;9.69;48.16
75543;BME280;64129;53.508;10.476;2024-02-23T13:06:22;98920.88;;;10.09;49.48
75543;BME280;64129;53.508;10.476;2024-02-23T13:08:53;98924.34;;;10.63;51.28
75543;BME280;64129;53.508;10.476;2024-02-23T13:11:38;98924.47;;;10.33;50.20
75543;BME280;64129;53.508;10.476;2024-02-23T13:14:20;98935.22;;;9.69;49.56
75543;BME280;64129;53.508;10.476;2024-02-23T13:16:47;98927.75;;;9.85;52.95
75543;BME280;64129;53.508;10.476;2024-02-23T13:19:30;98935.47;;;9.90;50.73
75543;BME280;64129;53.508;10.476;2024-02-23T13:21:57;98938.72;;;9.98;54.48
75543;BME280;64129;53.508;10.476;2024-02-23T13:24:38;98943.25;;;9.63;50.81
75543;BME280;64129;53.508;10.476;2024-02-23T13:27:17;98950.41;;;9.29;51.99
75543;BME280;64129;53.508;10.476;2024-02-23T13:29:44;98973.38;;;9.49;54.60
75543;BME280;64129;53.508;10.476;2024-02-23T13:32:19;98959.75;;;9.37;55.76
75543;BME280;64129;53.508;10.476;2024-02-23T13:34:46;98972.59;;;9.15;52.09
75543;BME280;64129;53.508;10.476;2024-02-23T13:37:19;98960.16;;;9.24;56.63
75543;BME280;64129;53.508;10.476;2024-02-23T13:39:46;98971.28;;;8.99;54.55
75543;BME280;64129;53.508;10.476;2024-02-23T13:42:15;98975.56;;;8.69;54.00